createdAt,value
2019-04-25T00:00:43.255Z,89.47
2019-04-25T00:01:43.914Z,89.62
2019-04-25T00:02:43.991Z,89.68
2019-04-25T00:03:43.718Z,89.58
2019-04-25T00:04:43.490Z,88.76
2019-04-25T00:05:43.589Z,88.56
2019-04-25T00:06:43.998Z,89.06
2019-04-25T00:07:43.862Z,89.17
2019-04-25T00:08:44.131Z,88.45
2019-04-25T00:09:44.033Z,88.24
2019-04-25T00:10:43.879Z,87.73
2019-04-25T00:11:46.552Z,88.86
2019-04-25T00:12:43.715Z,89.06
2019-04-25T00:13:44.001Z,88.76
2019-04-25T00:14:43.764Z,89.31
2019-04-25T00:15:44.927Z,88.96
2019-04-25T00:16:44.049Z,89.17
2019-04-25T00:17:43.397Z,89.17
2019-04-25T00:18:43.130Z,89.17
2019-04-25T00:19:43.324Z,88.35
2019-04-25T00:20:43.596Z,88.04
2019-04-25T00:21:43.363Z,87.53
2019-04-25T00:22:43.725Z,87.22
2019-04-25T00:23:43.705Z,87.32
2019-04-25T00:24:43.975Z,86.30
2019-04-25T00:25:45.850Z,86.40
2019-04-25T00:26:44.098Z,86.91
2019-04-25T00:27:43.578Z,86.30
2019-04-25T00:28:44.351Z,86.20
2019-04-25T00:29:43.933Z,85.48
2019-04-25T00:30:44.425Z,85.28
2019-04-25T00:31:43.693Z,85.17
2019-04-25T00:32:44.103Z,84.77
2019-04-25T00:33:44.173Z,85.17
2019-04-25T00:34:44.253Z,84.46
2019-04-25T00:35:44.562Z,84.97
2019-04-25T00:36:43.704Z,84.77
2019-04-25T00:37:44.254Z,84.87
2019-04-25T00:38:46.420Z,85.58
2019-04-25T00:39:44.776Z,86.85
2019-04-25T00:40:43.906Z,87.67
2019-04-25T00:41:45.157Z,87.26
2019-04-25T00:42:43.689Z,86.65
2019-04-25T00:43:43.884Z,86.65
2019-04-25T00:44:44.746Z,86.34
2019-04-25T00:45:44.450Z,86.96
2019-04-25T00:46:46.383Z,87.16
2019-04-25T00:47:44.651Z,87.16
2019-04-25T00:48:43.446Z,86.44
2019-04-25T00:49:44.025Z,86.34
2019-04-25T00:50:43.645Z,86.75
2019-04-25T00:51:43.759Z,86.65
2019-04-25T00:52:43.890Z,86.75
2019-04-25T00:53:43.450Z,87.06
2019-04-25T00:54:43.158Z,88.18
2019-04-25T00:55:43.164Z,88.49
2019-04-25T00:56:45.651Z,89.45
2019-04-25T00:57:43.531Z,89.56
2019-04-25T00:58:43.961Z,88.84
2019-04-25T00:59:43.917Z,89.25
2019-04-25T01:00:43.445Z,89.25
2019-04-25T01:01:44.249Z,89.15
2019-04-25T01:02:44.070Z,89.04
2019-04-25T01:03:44.154Z,89.36
2019-04-25T01:04:43.733Z,89.15
2019-04-25T01:05:44.410Z,89.15
2019-04-25T01:06:43.937Z,89.25
2019-04-25T01:07:44.247Z,89.56
2019-04-25T01:08:43.355Z,90.73
2019-04-25T01:09:42.517Z,88.23
2019-04-25T01:10:42.509Z,89.66
2019-04-25T01:11:42.526Z,89.70
2019-04-25T01:12:42.494Z,90.32
2019-04-25T01:13:42.480Z,90.93
2019-04-25T01:14:42.459Z,92.00
2019-04-25T01:15:42.579Z,92.41
2019-04-25T01:16:42.431Z,92.51
2019-04-25T01:17:42.445Z,93.13
2019-04-25T01:18:43.626Z,92.10
2019-04-25T01:19:44.047Z,92.72
2019-04-25T01:20:43.451Z,92.00
2019-04-25T01:21:43.910Z,91.69
2019-04-25T01:22:43.993Z,91.69
2019-04-25T01:23:43.481Z,91.38
2019-04-25T01:24:43.869Z,89.64
2019-04-25T01:25:44.328Z,90.97
2019-04-25T01:26:43.775Z,90.05
2019-04-25T01:27:43.333Z,90.77
2019-04-25T01:28:43.853Z,89.70
2019-04-25T01:29:42.297Z,90.32
2019-04-25T01:30:43.880Z,89.19
2019-04-25T01:31:43.448Z,89.39
2019-04-25T01:32:44.632Z,89.70
2019-04-25T01:33:43.341Z,89.19
2019-04-25T01:34:44.167Z,85.80
2019-04-25T01:35:43.064Z,86.83
2019-04-25T01:36:42.221Z,89.29
2019-04-25T01:37:43.722Z,89.39
2019-04-25T01:38:43.315Z,90.73
2019-04-25T01:39:42.191Z,87.04
2019-04-25T01:40:43.908Z,89.50
2019-04-25T01:41:42.180Z,89.39
2019-04-25T01:42:43.739Z,87.96
2019-04-25T01:43:43.659Z,88.68
2019-04-25T01:44:43.683Z,89.90
2019-04-25T01:45:43.763Z,90.52
2019-04-25T01:46:42.182Z,90.42
2019-04-25T01:47:43.402Z,90.01
2019-04-25T01:48:43.363Z,90.46
2019-04-25T01:49:43.808Z,90.56
2019-04-25T01:50:43.773Z,90.77
2019-04-25T01:51:43.597Z,89.64
2019-04-25T01:52:43.430Z,90.16
2019-04-25T01:53:42.073Z,90.05
2019-04-25T01:54:43.662Z,90.87
2019-04-25T01:55:53.764Z,91.69
2019-04-25T01:56:44.311Z,91.44
2019-04-25T01:57:43.729Z,90.16
2019-04-25T01:58:43.638Z,90.05
2019-04-25T01:59:43.721Z,91.49
2019-04-25T02:00:43.113Z,91.28
2019-04-25T02:01:41.958Z,91.28
2019-04-25T02:02:43.437Z,91.80
2019-04-25T02:03:41.939Z,90.87
2019-04-25T02:04:41.964Z,90.67
2019-04-25T02:05:41.918Z,91.59
2019-04-25T02:06:43.055Z,90.97
2019-04-25T02:07:41.909Z,91.18
2019-04-25T02:08:41.889Z,90.77
2019-04-25T02:09:43.460Z,90.56
2019-04-25T02:10:41.866Z,91.28
2019-04-25T02:11:41.856Z,89.64
2019-04-25T02:12:43.404Z,87.79
2019-04-25T02:13:43.681Z,90.46
2019-04-25T02:14:43.475Z,90.05
2019-04-25T02:15:43.327Z,90.87
2019-04-25T02:16:41.824Z,90.16
2019-04-25T02:17:41.815Z,89.64
2019-04-25T02:18:43.462Z,90.77
2019-04-25T02:19:41.774Z,89.54
2019-04-25T02:20:43.534Z,86.46
2019-04-25T02:21:43.309Z,88.92
2019-04-25T02:22:41.742Z,89.95
2019-04-25T02:23:41.730Z,89.33
2019-04-25T02:24:41.737Z,89.23
2019-04-25T02:25:41.723Z,90.05
2019-04-25T02:26:41.714Z,89.33
2019-04-25T02:27:41.686Z,90.67
2019-04-25T02:28:41.675Z,90.67
2019-04-25T02:29:43.226Z,91.08
2019-04-25T02:30:41.665Z,91.38
2019-04-25T02:31:41.673Z,91.28
2019-04-25T02:32:43.746Z,87.08
2019-04-25T02:33:44.100Z,90.36
2019-04-25T02:34:41.617Z,90.16
2019-04-25T02:35:44.009Z,90.36
2019-04-25T02:36:41.609Z,90.56
2019-04-25T02:37:41.582Z,90.91
2019-04-25T02:38:44.007Z,90.87
2019-04-25T02:39:41.556Z,91.33
2019-04-25T02:40:41.548Z,91.63
2019-04-25T02:41:41.562Z,91.49
2019-04-25T02:42:43.729Z,90.67
2019-04-25T02:43:41.527Z,91.33
2019-04-25T02:44:41.507Z,91.12
2019-04-25T02:45:41.497Z,91.53
2019-04-25T02:46:41.488Z,91.53
2019-04-25T02:47:41.499Z,91.84
2019-04-25T02:48:41.467Z,91.33
2019-04-25T02:49:41.468Z,92.04
2019-04-25T02:50:41.470Z,92.35
2019-04-25T02:51:41.442Z,90.81
2019-04-25T02:52:41.452Z,90.30
2019-04-25T02:53:41.415Z,90.20
2019-04-25T02:54:41.400Z,90.50
2019-04-25T02:55:41.396Z,91.02
2019-04-25T02:56:41.387Z,91.42
2019-04-25T02:57:41.385Z,90.91
2019-04-25T02:58:41.372Z,91.12
2019-04-25T02:59:41.349Z,90.71
2019-04-25T03:00:54.979Z,90.20
2019-04-25T03:01:44.458Z,90.50
2019-04-25T03:02:41.336Z,91.42
2019-04-25T03:03:41.310Z,90.50
2019-04-25T03:04:41.293Z,90.20
2019-04-25T03:05:41.312Z,90.30
2019-04-25T03:06:41.286Z,90.40
2019-04-25T03:07:41.282Z,89.52
2019-04-25T03:08:41.270Z,89.78
2019-04-25T03:09:41.239Z,87.32
2019-04-25T03:10:41.246Z,89.69
2019-04-25T03:11:41.222Z,89.89
2019-04-25T03:12:41.208Z,89.78
2019-04-25T03:13:41.240Z,89.83
2019-04-25T03:14:41.188Z,90.09
2019-04-25T03:15:41.184Z,90.50
2019-04-25T03:16:41.174Z,90.44
2019-04-25T03:17:41.159Z,90.95
2019-04-25T03:18:41.145Z,91.27
2019-04-25T03:19:41.160Z,91.16
2019-04-25T03:20:41.138Z,91.27
2019-04-25T03:21:41.118Z,92.29
2019-04-25T03:22:41.105Z,91.99
2019-04-25T03:23:42.782Z,90.75
2019-04-25T03:24:41.151Z,90.95
2019-04-25T03:25:41.076Z,91.57
2019-04-25T03:26:41.075Z,91.57
2019-04-25T03:27:41.052Z,91.47
2019-04-25T03:28:41.038Z,90.75
2019-04-25T03:29:41.033Z,90.75
2019-04-25T03:30:41.050Z,89.31
2019-04-25T03:31:41.020Z,89.21
2019-04-25T03:32:41.000Z,91.06
2019-04-25T03:33:40.987Z,91.57
2019-04-25T03:34:41.001Z,91.27
2019-04-25T03:35:40.984Z,90.24
2019-04-25T03:36:40.955Z,90.03
2019-04-25T03:37:40.953Z,90.55
2019-04-25T03:38:40.935Z,90.34
2019-04-25T03:39:40.922Z,90.44
2019-04-25T03:40:40.985Z,90.75
2019-04-25T03:41:40.901Z,91.27
2019-04-25T03:42:40.921Z,89.42
2019-04-25T03:43:40.880Z,90.34
2019-04-25T03:44:40.869Z,90.75
2019-04-25T03:45:40.870Z,90.03
2019-04-25T03:46:40.870Z,90.55
2019-04-25T03:47:40.840Z,91.27
2019-04-25T03:48:40.843Z,90.65
2019-04-25T03:49:40.822Z,90.75
2019-04-25T03:50:40.806Z,91.67
2019-04-25T03:51:40.815Z,91.16
2019-04-25T03:52:40.829Z,91.37
2019-04-25T03:53:40.778Z,91.37
2019-04-25T03:54:40.763Z,91.67
2019-04-25T03:55:40.750Z,91.47
2019-04-25T03:56:49.834Z,91.47
2019-04-25T03:57:41.730Z,91.20
2019-04-25T03:58:40.733Z,89.56
2019-04-25T03:59:40.709Z,90.03
2019-04-25T04:00:40.700Z,90.65
2019-04-25T04:01:40.707Z,91.82
2019-04-25T04:02:40.691Z,91.51
2019-04-25T04:03:40.666Z,91.27
2019-04-25T04:04:40.655Z,91.00
2019-04-25T04:05:40.647Z,91.27
2019-04-25T04:06:40.675Z,88.74
2019-04-25T04:07:40.630Z,89.21
2019-04-25T04:08:40.612Z,89.21
2019-04-25T04:09:40.603Z,90.24
2019-04-25T04:10:40.592Z,89.56
2019-04-25T04:11:40.588Z,90.65
2019-04-25T04:12:40.591Z,91.57
2019-04-25T04:13:40.560Z,91.16
2019-04-25T04:14:40.549Z,91.47
2019-04-25T04:15:40.560Z,90.95
2019-04-25T04:16:40.535Z,91.06
2019-04-25T04:17:40.540Z,91.37
2019-04-25T04:18:40.506Z,89.83
2019-04-25T04:19:40.497Z,89.93
2019-04-25T04:20:40.491Z,88.80
2019-04-25T04:21:40.473Z,88.39
2019-04-25T04:22:40.464Z,89.62
2019-04-25T04:23:40.473Z,90.03
2019-04-25T04:24:40.443Z,90.65
2019-04-25T04:25:40.440Z,89.83
2019-04-25T04:26:40.423Z,90.55
2019-04-25T04:27:40.411Z,90.14
2019-04-25T04:28:40.419Z,90.24
2019-04-25T04:29:40.405Z,90.24
2019-04-25T04:30:40.380Z,90.34
2019-04-25T04:31:40.375Z,90.24
2019-04-25T04:32:40.357Z,90.38
2019-04-25T04:33:40.372Z,91.00
2019-04-25T04:34:40.345Z,91.82
2019-04-25T04:35:40.326Z,91.31
2019-04-25T04:36:40.320Z,90.95
2019-04-25T04:37:40.304Z,90.89
2019-04-25T04:38:40.314Z,90.48
2019-04-25T04:39:40.303Z,90.24
2019-04-25T04:40:40.272Z,89.83
2019-04-25T04:41:40.263Z,90.34
2019-04-25T04:42:40.252Z,90.75
2019-04-25T04:43:40.252Z,90.89
2019-04-25T04:44:40.250Z,91.37
2019-04-25T04:45:40.219Z,90.24
2019-04-25T04:46:40.210Z,89.36
2019-04-25T04:47:40.199Z,90.24
2019-04-25T04:48:40.195Z,90.14
2019-04-25T04:49:40.198Z,90.24
2019-04-25T04:50:40.167Z,87.57
2019-04-25T04:51:40.155Z,89.93
2019-04-25T04:52:40.146Z,90.34
2019-04-25T04:53:40.135Z,89.62
2019-04-25T04:54:40.149Z,89.72
2019-04-25T04:55:40.114Z,89.99
2019-04-25T04:56:40.103Z,90.03
2019-04-25T04:57:40.103Z,89.89
2019-04-25T04:58:40.098Z,90.30
2019-04-25T04:59:40.093Z,90.65
2019-04-25T05:00:40.093Z,88.66
2019-04-25T05:01:40.074Z,88.49
2019-04-25T05:02:40.039Z,89.69
2019-04-25T05:03:40.031Z,88.76
2019-04-25T05:04:40.019Z,90.09
2019-04-25T05:05:40.030Z,90.09
2019-04-25T05:06:40.001Z,87.22
2019-04-25T05:07:39.987Z,85.89
2019-04-25T05:08:39.978Z,89.37
2019-04-25T05:09:39.973Z,87.49
2019-04-25T05:10:40.201Z,87.90
2019-04-25T05:11:40.035Z,85.13
2019-04-25T05:12:39.948Z,88.41
2019-04-25T05:13:39.934Z,88.62
2019-04-25T05:14:39.938Z,89.23
2019-04-25T05:15:39.906Z,89.23
2019-04-25T05:16:39.912Z,87.70
2019-04-25T05:17:39.920Z,86.87
2019-04-25T05:18:40.117Z,87.28
2019-04-25T05:19:39.864Z,88.21
2019-04-25T05:20:39.852Z,88.41
2019-04-25T05:21:39.901Z,86.66
2019-04-25T05:22:39.831Z,88.31
2019-04-25T05:23:39.818Z,87.18
2019-04-25T05:24:39.814Z,84.78
2019-04-25T05:25:39.797Z,89.29
2019-04-25T05:26:39.784Z,87.85
2019-04-25T05:27:56.910Z,87.04
2019-04-25T05:28:40.764Z,84.88
2019-04-25T05:29:39.763Z,87.24
2019-04-25T05:30:39.744Z,87.76
2019-04-25T05:31:39.739Z,87.34
2019-04-25T05:32:39.803Z,88.64
2019-04-25T05:33:39.713Z,87.85
2019-04-25T05:34:39.746Z,87.96
2019-04-25T05:35:39.692Z,87.10
2019-04-25T05:36:39.703Z,88.33
2019-04-25T05:37:39.676Z,87.92
2019-04-25T05:38:39.681Z,86.48
2019-04-25T05:39:39.656Z,86.28
2019-04-25T05:40:39.641Z,88.43
2019-04-25T05:41:39.629Z,86.99
2019-04-25T05:42:39.627Z,85.56
2019-04-25T05:43:39.629Z,81.77
2019-04-25T05:44:39.613Z,84.70
2019-04-25T05:45:39.587Z,84.84
2019-04-25T05:46:39.590Z,86.85
2019-04-25T05:47:39.566Z,87.37
2019-04-25T05:48:39.605Z,83.17
2019-04-25T05:49:39.544Z,85.22
2019-04-25T05:50:39.572Z,84.70
2019-04-25T05:51:39.525Z,85.63
2019-04-25T05:52:39.511Z,85.48
2019-04-25T05:53:39.502Z,86.61
2019-04-25T05:54:39.520Z,83.68
2019-04-25T05:55:39.479Z,86.71
2019-04-25T05:56:39.476Z,86.75
2019-04-25T05:57:47.410Z,86.81
2019-04-25T05:58:40.447Z,87.43
2019-04-25T05:59:39.435Z,86.71
2019-04-25T06:00:39.447Z,87.73
2019-04-25T06:01:39.435Z,84.66
2019-04-25T06:02:39.412Z,86.40
2019-04-25T06:03:39.400Z,82.78
2019-04-25T06:04:39.389Z,81.24
2019-04-25T06:05:39.395Z,83.81
2019-04-25T06:06:39.365Z,82.17
2019-04-25T06:07:39.354Z,82.75
2019-04-25T06:08:39.344Z,81.31
2019-04-25T06:09:39.348Z,82.75
2019-04-25T06:10:39.354Z,82.84
2019-04-25T06:11:39.313Z,80.90
2019-04-25T06:12:39.301Z,83.15
2019-04-25T06:13:39.314Z,81.99
2019-04-25T06:14:39.295Z,82.91
2019-04-25T06:15:39.290Z,81.17
2019-04-25T06:16:39.259Z,79.74
2019-04-25T06:17:39.250Z,80.15
2019-04-25T06:18:39.241Z,80.46
2019-04-25T06:19:39.234Z,82.50
2019-04-25T06:20:39.235Z,82.70
2019-04-25T06:21:39.206Z,81.38
2019-04-25T06:22:39.213Z,82.50
2019-04-25T06:23:39.185Z,80.87
2019-04-25T06:24:39.175Z,78.00
2019-04-25T06:25:39.856Z,79.23
2019-04-25T06:26:40.024Z,81.44
2019-04-25T06:27:39.143Z,80.66
2019-04-25T06:28:49.165Z,80.46
2019-04-25T06:29:40.128Z,80.46
2019-04-25T06:30:39.113Z,80.35
2019-04-25T06:31:39.121Z,79.64
2019-04-25T06:32:39.090Z,81.65
2019-04-25T06:33:39.111Z,81.17
2019-04-25T06:34:39.068Z,81.79
2019-04-25T06:35:39.057Z,83.07
2019-04-25T06:36:39.066Z,82.97
2019-04-25T06:37:39.035Z,78.61
2019-04-25T06:38:39.027Z,79.94
2019-04-25T06:39:39.023Z,79.94
2019-04-25T06:40:39.005Z,79.53
2019-04-25T06:41:39.042Z,78.99
2019-04-25T06:42:39.012Z,79.70
2019-04-25T06:43:38.974Z,78.88
2019-04-25T06:44:38.961Z,79.91
2019-04-25T06:45:38.956Z,79.60
2019-04-25T06:46:38.951Z,78.17
2019-04-25T06:47:38.950Z,77.66
2019-04-25T06:48:38.924Z,79.19
2019-04-25T06:49:38.925Z,78.58
2019-04-25T06:50:38.898Z,78.85
2019-04-25T06:51:38.891Z,76.40
2019-04-25T06:52:38.899Z,79.66
2019-04-25T06:53:38.869Z,78.75
2019-04-25T06:54:38.858Z,79.36
2019-04-25T06:55:38.887Z,78.03
2019-04-25T06:56:38.836Z,80.79
2019-04-25T06:57:38.849Z,80.14
2019-04-25T06:58:38.816Z,81.57
2019-04-25T06:59:41.440Z,77.69
2019-04-25T07:00:42.571Z,78.09
2019-04-25T07:01:39.785Z,78.16
2019-04-25T07:02:38.807Z,77.96
2019-04-25T07:03:38.771Z,79.08
2019-04-25T07:04:38.751Z,78.16
2019-04-25T07:05:40.509Z,76.73
2019-04-25T07:06:38.734Z,78.23
2019-04-25T07:07:38.741Z,77.21
2019-04-25T07:08:38.729Z,78.33
2019-04-25T07:09:38.797Z,74.96
2019-04-25T07:10:38.689Z,75.98
2019-04-25T07:11:38.679Z,78.84
2019-04-25T07:12:38.695Z,78.12
2019-04-25T07:13:38.971Z,78.12
2019-04-25T07:14:38.646Z,79.18
2019-04-25T07:15:38.634Z,79.04
2019-04-25T07:16:38.624Z,75.48
2019-04-25T07:17:38.622Z,78.02
2019-04-25T07:18:38.626Z,75.98
2019-04-25T07:19:38.673Z,79.55
2019-04-25T07:20:38.644Z,79.25
2019-04-25T07:21:38.570Z,75.68
2019-04-25T07:22:38.562Z,75.07
2019-04-25T07:23:38.571Z,75.68
2019-04-25T07:24:38.540Z,76.29
2019-04-25T07:25:38.529Z,75.98
2019-04-25T07:26:39.787Z,76.90
2019-04-25T07:27:38.572Z,76.50
2019-04-25T07:28:38.537Z,76.29
2019-04-25T07:29:38.490Z,74.86
2019-04-25T07:30:50.115Z,76.46
2019-04-25T07:31:39.472Z,76.09
2019-04-25T07:32:38.892Z,77.62
2019-04-25T07:33:38.444Z,76.15
2019-04-25T07:34:38.465Z,74.73
2019-04-25T07:35:38.424Z,76.05
2019-04-25T07:36:38.415Z,77.68
2019-04-25T07:37:41.518Z,75.88
2019-04-25T07:38:38.395Z,77.78
2019-04-25T07:39:38.411Z,76.66
2019-04-25T07:40:38.377Z,76.46
2019-04-25T07:41:38.578Z,74.93
2019-04-25T07:42:38.350Z,77.27
2019-04-25T07:43:38.338Z,77.68
2019-04-25T07:44:49.399Z,77.98
2019-04-25T07:45:39.347Z,75.13
2019-04-25T07:46:39.950Z,76.25
2019-04-25T07:47:38.337Z,76.01
2019-04-25T07:48:38.289Z,76.83
2019-04-25T07:49:38.276Z,78.16
2019-04-25T07:50:38.283Z,77.61
2019-04-25T07:51:38.254Z,76.18
2019-04-25T07:52:38.249Z,75.98
2019-04-25T07:53:38.235Z,74.86
2019-04-25T07:54:38.503Z,76.04
2019-04-25T07:55:38.826Z,72.89
2019-04-25T07:56:38.203Z,73.50
2019-04-25T07:57:38.650Z,74.11
2019-04-25T07:58:49.316Z,70.45
2019-04-25T07:59:39.169Z,72.14
2019-04-25T08:00:38.182Z,74.99
2019-04-25T08:01:39.069Z,72.55
2019-04-25T08:02:38.137Z,74.85
2019-04-25T08:03:38.128Z,72.75
2019-04-25T08:04:38.372Z,72.92
2019-04-25T08:05:38.104Z,71.09
2019-04-25T08:06:38.114Z,70.07
2019-04-25T08:07:38.086Z,67.83
2019-04-25T08:08:38.178Z,70.89
2019-04-25T08:09:38.086Z,70.89
2019-04-25T08:10:38.167Z,71.40
2019-04-25T08:11:38.326Z,70.18
2019-04-25T08:12:38.045Z,72.41
2019-04-25T08:13:38.035Z,70.18
2019-04-25T08:14:38.011Z,74.04
2019-04-25T08:15:38.364Z,72.92
2019-04-25T08:16:38.008Z,70.28
2019-04-25T08:17:38.845Z,69.16
2019-04-25T08:18:38.931Z,69.16
2019-04-25T08:19:37.960Z,67.63
2019-04-25T08:20:37.946Z,67.33
2019-04-25T08:21:38.403Z,69.46
2019-04-25T08:22:50.154Z,70.38
2019-04-25T08:23:38.966Z,69.46
2019-04-25T08:24:37.904Z,68.75
2019-04-25T08:25:40.285Z,70.01
2019-04-25T08:26:37.903Z,69.16
2019-04-25T08:27:38.847Z,70.92
2019-04-25T08:28:50.146Z,70.92
2019-04-25T08:29:39.738Z,70.07
2019-04-25T08:30:38.228Z,70.89
2019-04-25T08:31:37.860Z,69.16
2019-04-25T08:32:37.818Z,70.79
2019-04-25T08:33:37.808Z,69.26
2019-04-25T08:34:38.603Z,68.65
2019-04-25T08:35:38.193Z,67.63
2019-04-25T08:36:38.659Z,69.97
2019-04-25T08:37:37.950Z,70.99
2019-04-25T08:38:38.175Z,68.75
2019-04-25T08:39:38.748Z,70.48
2019-04-25T08:40:38.986Z,69.26
2019-04-25T08:41:38.493Z,70.68
2019-04-25T08:42:37.976Z,70.07
2019-04-25T08:43:40.088Z,70.99
2019-04-25T08:44:37.699Z,69.02
2019-04-25T08:45:38.481Z,70.92
2019-04-25T08:46:38.489Z,67.97
2019-04-25T08:47:37.679Z,68.99
2019-04-25T08:48:37.654Z,69.40
2019-04-25T08:49:38.150Z,68.89
2019-04-25T08:50:40.177Z,68.96
2019-04-25T08:51:37.857Z,70.18
2019-04-25T08:52:37.789Z,66.02
2019-04-25T08:53:37.615Z,67.54
2019-04-25T08:54:41.087Z,67.84
2019-04-25T08:55:38.571Z,69.87
2019-04-25T08:56:37.833Z,66.02
2019-04-25T08:57:37.951Z,67.71
2019-04-25T08:58:37.546Z,67.91
2019-04-25T08:59:43.330Z,68.22
2019-04-25T09:00:38.518Z,67.50
2019-04-25T09:01:39.555Z,67.38
2019-04-25T09:02:38.723Z,66.26
2019-04-25T09:03:38.005Z,66.97
2019-04-25T09:04:38.027Z,66.33
2019-04-25T09:05:38.723Z,65.21
2019-04-25T09:06:38.548Z,65.52
2019-04-25T09:07:38.227Z,67.55
2019-04-25T09:08:38.536Z,68.02
2019-04-25T09:09:37.858Z,65.89
2019-04-25T09:10:38.938Z,66.67
2019-04-25T09:11:38.745Z,64.72
2019-04-25T09:12:37.794Z,64.11
2019-04-25T09:13:38.446Z,65.12
2019-04-25T09:14:37.819Z,64.92
2019-04-25T09:15:38.084Z,65.62
2019-04-25T09:16:37.891Z,67.42
2019-04-25T09:17:38.038Z,64.69
2019-04-25T09:18:38.141Z,65.36
2019-04-25T09:19:38.375Z,63.75
2019-04-25T09:20:39.619Z,62.63
2019-04-25T09:21:37.843Z,62.84
2019-04-25T09:22:38.417Z,63.37
2019-04-25T09:23:37.925Z,62.46
2019-04-25T09:24:38.097Z,61.75
2019-04-25T09:25:37.255Z,63.98
2019-04-25T09:26:38.307Z,63.09
2019-04-25T09:27:39.717Z,63.70
2019-04-25T09:28:39.144Z,62.99
2019-04-25T09:29:37.236Z,63.60
2019-04-25T09:30:38.293Z,64.82
2019-04-25T09:31:38.792Z,64.92
2019-04-25T09:32:37.283Z,63.09
2019-04-25T09:33:37.205Z,65.02
2019-04-25T09:34:38.072Z,64.72
2019-04-25T09:35:37.657Z,65.73
2019-04-25T09:36:37.696Z,65.62
2019-04-25T09:37:37.122Z,63.40
2019-04-25T09:38:37.113Z,63.09
2019-04-25T09:39:37.140Z,62.79
2019-04-25T09:40:37.444Z,65.12
2019-04-25T09:41:37.867Z,63.70
2019-04-25T09:42:37.076Z,64.31
2019-04-25T09:43:37.306Z,63.81
2019-04-25T09:44:38.198Z,63.09
2019-04-25T09:45:37.620Z,63.40
2019-04-25T09:46:37.342Z,65.22
2019-04-25T09:47:37.183Z,62.96
2019-04-25T09:48:37.524Z,62.66
2019-04-25T09:49:37.980Z,63.57
2019-04-25T09:50:37.500Z,62.66
2019-04-25T09:51:37.621Z,61.65
2019-04-25T09:52:37.760Z,63.13
2019-04-25T09:53:42.353Z,62.30
2019-04-25T09:54:38.113Z,60.41
2019-04-25T09:55:37.555Z,60.58
2019-04-25T09:56:36.918Z,61.92
2019-04-25T09:57:36.906Z,61.72
2019-04-25T09:58:37.921Z,61.11
2019-04-25T09:59:37.543Z,61.90
2019-04-25T10:00:38.135Z,62.19
2019-04-25T10:01:37.886Z,62.10
2019-04-25T10:02:36.971Z,60.88
2019-04-25T10:03:36.844Z,61.08
2019-04-25T10:04:36.916Z,60.78
2019-04-25T10:05:37.132Z,62.30
2019-04-25T10:06:37.309Z,62.40
2019-04-25T10:07:37.283Z,60.78
2019-04-25T10:08:37.029Z,62.30
2019-04-25T10:09:36.779Z,64.12
2019-04-25T10:10:36.820Z,63.10
2019-04-25T10:11:38.216Z,62.40
2019-04-25T10:12:37.346Z,62.70
2019-04-25T10:13:38.502Z,61.39
2019-04-25T10:14:37.626Z,61.69
2019-04-25T10:15:37.537Z,61.99
2019-04-25T10:16:39.001Z,60.27
2019-04-25T10:17:37.570Z,62.07
2019-04-25T10:18:37.036Z,59.64
2019-04-25T10:19:36.940Z,61.66
2019-04-25T10:20:37.563Z,60.35
2019-04-25T10:21:37.960Z,60.25
2019-04-25T10:22:36.641Z,61.76
2019-04-25T10:23:38.135Z,62.07
2019-04-25T10:24:37.408Z,63.38
2019-04-25T10:25:38.000Z,63.38
2019-04-25T10:26:37.605Z,62.07
2019-04-25T10:27:36.596Z,62.04
2019-04-25T10:28:36.579Z,61.96
2019-04-25T10:29:44.429Z,61.96
2019-04-25T10:30:37.556Z,62.87
2019-04-25T10:31:36.568Z,61.87
2019-04-25T10:32:36.536Z,60.96
2019-04-25T10:33:36.529Z,60.96
2019-04-25T10:34:36.513Z,62.27
2019-04-25T10:35:46.661Z,61.16
2019-04-25T10:36:39.860Z,60.96
2019-04-25T10:37:36.482Z,62.47
2019-04-25T10:38:36.552Z,62.47
2019-04-25T10:39:36.462Z,62.14
2019-04-25T10:40:36.449Z,63.05
2019-04-25T10:41:36.440Z,64.76
2019-04-25T10:42:36.448Z,64.97
2019-04-25T10:43:36.419Z,63.08
2019-04-25T10:44:36.413Z,62.04
2019-04-25T10:45:36.409Z,62.27
2019-04-25T10:46:36.387Z,64.19
2019-04-25T10:47:36.393Z,63.45
2019-04-25T10:48:36.364Z,64.56
2019-04-25T10:49:36.354Z,61.43
2019-04-25T10:50:36.345Z,61.83
2019-04-25T10:51:36.333Z,62.74
2019-04-25T10:52:36.345Z,61.63
2019-04-25T10:53:36.314Z,59.69
2019-04-25T10:54:36.311Z,61.94
2019-04-25T10:55:36.291Z,61.10
2019-04-25T10:56:36.280Z,60.29
2019-04-25T10:57:36.316Z,62.51
2019-04-25T10:58:36.262Z,59.99
2019-04-25T10:59:36.252Z,62.48
2019-04-25T11:00:36.237Z,60.16
2019-04-25T11:01:36.229Z,60.77
2019-04-25T11:02:36.234Z,60.94
2019-04-25T11:03:36.254Z,61.24
2019-04-25T11:04:36.204Z,59.73
2019-04-25T11:05:36.183Z,59.83
2019-04-25T11:06:36.175Z,59.93
2019-04-25T11:07:36.187Z,61.75
2019-04-25T11:08:36.152Z,61.01
2019-04-25T11:09:36.145Z,59.90
2019-04-25T11:10:36.130Z,61.32
2019-04-25T11:11:36.120Z,60.61
2019-04-25T11:12:36.109Z,60.21
2019-04-25T11:13:36.120Z,60.41
2019-04-25T11:14:36.090Z,60.81
2019-04-25T11:15:36.076Z,58.80
2019-04-25T11:16:36.104Z,58.80
2019-04-25T11:17:36.055Z,59.88
2019-04-25T11:18:36.065Z,58.69
2019-04-25T11:19:37.329Z,59.07
2019-04-25T11:20:36.024Z,58.47
2019-04-25T11:21:36.013Z,56.75
2019-04-25T11:22:36.048Z,56.04
2019-04-25T11:23:36.016Z,56.35
2019-04-25T11:24:35.983Z,56.42
2019-04-25T11:25:35.976Z,57.83
2019-04-25T11:26:35.960Z,53.67
2019-04-25T11:27:35.951Z,53.45
2019-04-25T11:28:35.939Z,49.02
2019-04-25T11:29:35.958Z,50.91
2019-04-25T11:30:35.918Z,51.41
2019-04-25T11:31:35.908Z,51.81
2019-04-25T11:32:35.897Z,51.21
2019-04-25T11:33:35.887Z,51.09
2019-04-25T11:34:35.901Z,53.20
2019-04-25T11:35:35.865Z,53.09
2019-04-25T11:36:35.855Z,52.87
2019-04-25T11:37:35.844Z,53.14
2019-04-25T11:38:35.836Z,53.14
2019-04-25T11:39:35.841Z,51.51
2019-04-25T11:40:35.811Z,50.11
2019-04-25T11:41:35.800Z,51.84
2019-04-25T11:42:35.792Z,50.93
2019-04-25T11:43:35.788Z,52.32
2019-04-25T11:44:35.810Z,49.30
2019-04-25T11:45:35.758Z,47.27
2019-04-25T11:46:35.748Z,49.18
2019-04-25T11:47:35.743Z,49.78
2019-04-25T11:48:35.726Z,50.96
2019-04-25T11:49:35.714Z,49.54
2019-04-25T11:50:37.063Z,51.54
2019-04-25T11:51:35.694Z,48.63
2019-04-25T11:52:35.682Z,47.55
2019-04-25T11:53:35.678Z,47.83
2019-04-25T11:54:35.672Z,49.04
2019-04-25T11:55:35.674Z,48.03
2019-04-25T11:56:35.642Z,47.33
2019-04-25T11:57:35.638Z,49.43
2019-04-25T11:58:35.620Z,47.73
2019-04-25T11:59:35.613Z,49.84
2019-04-25T12:00:35.622Z,45.90
2019-04-25T12:01:35.590Z,45.70
2019-04-25T12:02:35.576Z,47.00
2019-04-25T12:03:35.566Z,46.62
2019-04-25T12:04:35.562Z,46.12
2019-04-25T12:05:35.563Z,45.42
2019-04-25T12:06:35.534Z,44.24
2019-04-25T12:07:35.525Z,47.25
2019-04-25T12:08:35.523Z,46.75
2019-04-25T12:09:35.502Z,46.15
2019-04-25T12:10:35.513Z,48.66
2019-04-25T12:11:35.485Z,46.62
2019-04-25T12:12:37.194Z,47.13
2019-04-25T12:13:35.458Z,46.03
2019-04-25T12:14:35.446Z,46.33
2019-04-25T12:15:35.437Z,42.60
2019-04-25T12:16:35.451Z,44.50
2019-04-25T12:17:35.428Z,43.80
2019-04-25T12:18:35.515Z,43.60
2019-04-25T12:19:37.926Z,44.40
2019-04-25T12:20:35.386Z,44.40
2019-04-25T12:21:35.404Z,44.40
2019-04-25T12:22:35.370Z,45.30
2019-04-25T12:23:35.356Z,45.90
2019-04-25T12:24:35.345Z,46.70
2019-04-25T12:25:35.333Z,46.38
2019-04-25T12:26:35.357Z,44.68
2019-04-25T12:27:35.312Z,45.88
2019-04-25T12:28:35.306Z,48.08
2019-04-25T12:29:35.294Z,45.76
2019-04-25T12:30:40.077Z,43.26
2019-04-25T12:31:36.312Z,41.88
2019-04-25T12:32:35.399Z,43.48
2019-04-25T12:33:35.249Z,42.85
2019-04-25T12:34:35.243Z,43.35
2019-04-25T12:35:35.230Z,42.13
2019-04-25T12:36:35.218Z,42.74
2019-04-25T12:37:35.777Z,41.13
2019-04-25T12:38:35.483Z,41.43
2019-04-25T12:39:35.202Z,40.03
2019-04-25T12:40:35.176Z,42.03
2019-04-25T12:41:35.166Z,40.71
2019-04-25T12:42:35.176Z,41.52
2019-04-25T12:43:35.146Z,39.61
2019-04-25T12:44:35.142Z,40.71
2019-04-25T12:45:35.126Z,40.41
2019-04-25T12:46:35.115Z,41.21
2019-04-25T12:47:35.145Z,40.61
2019-04-25T12:48:35.126Z,40.71
2019-04-25T12:49:35.083Z,41.71
2019-04-25T12:50:35.071Z,41.02
2019-04-25T12:51:35.062Z,42.61
2019-04-25T12:52:35.050Z,42.91